Time;durP1;ratioP1;P1;durP2;ratioP2;P2;SDS_P1;SDS_P2;PMS_P1;PMS_P2;Temp;Humidity;BMP_temperature;BMP_pressure;BME280_temperature;BME280_humidity;BME280_pressure;Samples;Min_cycle;Max_cycle;Signal;HPM_P1;HPM_P2
2023/01/14 00:01:16;;;;;;;18.42;6.65;;;;;;;6.69;100.00;162313.44;5070638;28;20042;-63
2023/01/14 00:03:42;;;;;;;26.05;9.65;;;;;;;6.69;100.00;162314.81;5071989;28;20593;-62
2023/01/14 00:06:11;;;;;;;25.52;7.85;;;;;;;6.66;100.00;162306.69;5069297;28;20072;-63
2023/01/14 00:08:36;;;;;;;31.58;11.07;;;;;;;6.59;100.00;162287.84;5072235;28;20070;-63
2023/01/14 00:11:04;;;;;;;18.20;7.05;;;;;;;6.58;100.00;162285.16;5070387;28;20445;-63
2023/01/14 00:13:31;;;;;;;16.08;6.05;;;;;;;6.50;100.00;162264.97;5071159;28;20103;-63
2023/01/14 00:15:57;;;;;;;21.10;5.97;;;;;;;6.50;100.00;162264.97;5070601;28;20124;-65
2023/01/14 00:18:23;;;;;;;27.85;6.35;;;;;;;6.48;100.00;162259.59;5071513;28;20431;-63
2023/01/14 00:21:02;;;;;;;28.92;6.78;;;;;;;6.47;100.00;162256.88;5051106;28;20041;-63
2023/01/14 00:23:29;;;;;;;26.90;8.02;;;;;;;6.50;100.00;162264.97;5051364;28;20107;-63
2023/01/14 00:26:02;;;;;;;33.22;10.93;;;;;;;6.54;100.00;162274.41;5050335;28;20503;-62
2023/01/14 00:28:28;;;;;;;13.82;5.13;;;;;;;6.60;100.00;162291.88;5046341;28;20029;-62
2023/01/14 00:31:00;;;;;;;25.92;6.90;;;;;;;6.69;100.00;162314.81;5050294;28;20411;-63
2023/01/14 00:33:26;;;;;;;17.75;5.47;;;;;;;6.77;100.00;162334.97;5051285;28;20029;-63
2023/01/14 00:35:53;;;;;;;20.05;6.78;;;;;;;6.81;100.00;162345.78;5049773;28;20045;-63
2023/01/14 00:38:18;;;;;;;24.25;7.80;;;;;;;6.89;100.00;162367.28;5051058;28;20033;-63
2023/01/14 00:40:43;;;;;;;25.52;6.88;;;;;;;6.95;100.00;162383.47;5049864;28;20037;-62
2023/01/14 00:43:09;;;;;;;20.13;8.40;;;;;;;7.01;100.00;162396.91;5051078;28;20032;-63
2023/01/14 00:45:34;;;;;;;26.85;10.20;;;;;;;7.02;100.00;162399.63;5049897;28;20048;-62
2023/01/14 00:47:59;;;;;;;22.75;5.95;;;;;;;7.05;100.00;162409.03;5051384;28;20036;-63
2023/01/14 00:50:25;;;;;;;20.75;6.53;;;;;;;7.07;100.00;162413.06;5049342;28;20025;-63
2023/01/14 00:52:50;;;;;;;22.00;7.22;;;;;;;7.14;100.00;162431.94;5051258;28;20488;-65
2023/01/14 00:55:15;;;;;;;32.30;8.75;;;;;;;7.14;100.00;162433.31;5049524;28;20039;-64
2023/01/14 00:57:41;;;;;;;16.65;6.70;;;;;;;7.14;100.00;162431.94;5050907;28;20021;-65
2023/01/14 01:00:07;;;;;;;7.78;4.75;;;;;;;7.19;100.00;162445.38;5051065;28;20032;-65
2023/01/14 01:02:32;;;;;;;19.70;5.45;;;;;;;7.13;100.00;162429.22;5049509;28;20041;-64
2023/01/14 01:04:57;;;;;;;20.13;5.05;;;;;;;7.17;100.00;162440.03;5050603;28;20516;-64
2023/01/14 01:07:23;;;;;;;19.10;6.90;;;;;;;7.16;100.00;162437.31;5049449;28;20650;-65
2023/01/14 01:09:48;;;;;;;16.92;6.13;;;;;;;7.19;100.00;162445.38;5031184;28;20078;-66
2023/01/14 01:12:13;;;;;;;17.80;7.18;;;;;;;7.20;100.00;162448.06;5029121;28;20049;-65
2023/01/14 01:14:39;;;;;;;17.52;4.57;;;;;;;7.20;100.00;162448.06;5047218;28;20100;-64
2023/01/14 01:17:04;;;;;;;18.98;7.75;;;;;;;7.16;100.00;162437.31;5048618;28;20041;-64
2023/01/14 01:19:29;;;;;;;16.70;5.72;;;;;;;7.11;100.00;162423.88;5050604;28;20405;-64
2023/01/14 01:21:55;;;;;;;25.75;7.75;;;;;;;7.18;100.00;162441.34;5049097;28;20036;-64
2023/01/14 01:24:20;;;;;;;25.42;6.80;;;;;;;7.16;100.00;162437.31;5050441;28;20029;-63
2023/01/14 01:26:47;;;;;;;18.73;6.78;;;;;;;7.11;100.00;162423.88;5049425;28;20033;-63
2023/01/14 01:29:13;;;;;;;22.83;4.97;;;;;;;7.10;100.00;162421.19;5050560;28;20376;-63
2023/01/14 01:31:38;;;;;;;24.33;8.98;;;;;;;7.11;100.00;162423.88;5049262;28;20041;-63
2023/01/14 01:34:04;;;;;;;20.73;6.68;;;;;;;7.07;100.00;162413.06;5050833;28;20025;-63
2023/01/14 01:36:29;;;;;;;17.17;5.63;;;;;;;7.03;100.00;162402.31;5048752;28;20063;-63
2023/01/14 01:38:55;;;;;;;24.00;5.75;;;;;;;6.95;100.00;162383.47;5050408;28;20387;-63
2023/01/14 01:41:24;;;;;;;21.33;5.93;;;;;;;6.88;100.00;162364.63;5048957;28;20047;-63
2023/01/14 01:44:28;;;;;;;23.95;7.72;;;;;;;6.84;100.00;162353.81;5050168;28;20068;-63
2023/01/14 01:46:53;;;;;;;26.48;8.25;;;;;;;6.70;100.00;162317.50;5049007;28;20040;-63
2023/01/14 01:49:23;;;;;;;24.63;8.05;;;;;;;6.62;100.00;162297.28;5050306;28;20032;-63
2023/01/14 01:52:02;;;;;;;25.38;7.50;;;;;;;6.57;100.00;162282.44;5049050;28;20033;-63
2023/01/14 01:54:36;;;;;;;14.93;5.53;;;;;;;6.53;100.00;162271.72;5050300;28;20033;-63
2023/01/14 01:57:06;;;;;;;22.58;6.22;;;;;;;6.39;100.00;162236.72;5048701;28;20120;-62
2023/01/14 01:59:35;;;;;;;23.23;7.20;;;;;;;6.34;100.00;162223.22;5050069;28;20029;-63
2023/01/14 02:02:01;;;;;;;26.65;7.25;;;;;;;6.26;100.00;162203.06;5049005;28;20511;-63
2023/01/14 02:04:26;;;;;;;27.35;7.43;;;;;;;6.21;100.00;162188.22;5049724;28;20049;-63
2023/01/14 02:06:52;;;;;;;19.48;7.43;;;;;;;6.19;100.00;162184.22;5048906;28;20056;-63
2023/01/14 02:09:18;;;;;;;29.30;8.18;;;;;;;6.15;100.00;162173.41;5050280;28;20025;-63
2023/01/14 02:11:57;;;;;;;28.80;8.85;;;;;;;6.08;100.00;162155.94;5048565;28;20577;-63
2023/01/14 02:14:42;;;;;;;32.00;6.75;;;;;;;6.02;100.00;162139.81;5050048;28;20109;-63
2023/01/14 02:17:37;;;;;;;23.88;7.35;;;;;;;5.98;100.00;162130.34;5048608;28;20064;-63
2023/01/14 02:20:12;;;;;;;29.88;7.45;;;;;;;5.97;100.00;162127.63;5049667;28;20064;-63
2023/01/14 02:22:38;;;;;;;24.40;7.43;;;;;;;6.00;100.00;162135.72;5049039;28;20439;-63
2023/01/14 02:25:30;;;;;;;27.63;7.88;;;;;;;6.02;100.00;162139.81;5050236;28;20116;-63
2023/01/14 02:28:13;;;;;;;25.95;7.20;;;;;;;5.95;100.00;162120.91;5041516;28;20045;-63
2023/01/14 02:31:04;;;;;;;24.45;7.68;;;;;;;5.85;100.00;162095.31;5032731;28;20056;-63
2023/01/14 02:33:38;;;;;;;19.63;6.38;;;;;;;5.86;100.00;162098.00;5033637;28;20689;-65
2023/01/14 02:36:32;;;;;;;22.02;6.55;;;;;;;5.91;100.00;162111.50;5032320;28;20453;-64
2023/01/14 02:39:05;;;;;;;25.83;7.93;;;;;;;5.96;100.00;162124.94;5033849;28;20036;-65
2023/01/14 02:44:34;;;;;;;22.80;5.78;;;;;;;6.03;100.00;162142.50;5054627;28;20118;-64
2023/01/14 02:47:05;;;;;;;32.33;8.70;;;;;;;5.98;100.00;162130.34;5052213;28;20087;-65
2023/01/14 02:49:35;;;;;;;26.13;8.07;;;;;;;6.06;100.00;162149.22;5052922;28;20031;-65
2023/01/14 02:52:05;;;;;;;23.48;10.35;;;;;;;6.06;100.00;162149.22;5052112;28;20075;-64
2023/01/14 02:54:30;;;;;;;17.67;6.32;;;;;;;5.99;100.00;162133.09;5053690;28;20009;-65
2023/01/14 02:57:02;;;;;;;32.08;6.80;;;;;;;6.01;100.00;162137.09;5051566;28;20040;-64
2023/01/14 02:59:52;;;;;;;25.10;8.93;;;;;;;6.01;100.00;162138.44;5053424;28;20020;-64
2023/01/14 03:02:48;;;;;;;20.00;9.20;;;;;;;5.99;100.00;162133.09;5051653;28;20068;-64
2023/01/14 03:05:45;;;;;;;22.25;8.15;;;;;;;5.91;100.00;162110.13;5050842;28;20045;-64
2023/01/14 03:08:30;;;;;;;30.08;7.70;;;;;;;5.78;100.00;162076.47;5053101;28;20120;-64
2023/01/14 03:11:00;;;;;;;35.42;9.75;;;;;;;5.61;100.00;162033.47;5051262;28;20047;-64
2023/01/14 03:13:38;;;;;;;28.73;9.05;;;;;;;5.52;100.00;162009.22;5052864;28;20032;-64
2023/01/14 03:16:17;;;;;;;35.10;8.50;;;;;;;5.47;100.00;161995.78;5051702;28;20067;-64
2023/01/14 03:18:50;;;;;;;26.77;8.60;;;;;;;5.36;100.00;161967.53;5052453;28;20037;-64
2023/01/14 03:21:20;;;;;;;28.88;9.15;;;;;;;5.24;100.00;161937.91;5051379;28;20124;-64
2023/01/14 03:24:03;;;;;;;30.92;9.38;;;;;;;5.22;100.00;161932.53;5052773;28;20024;-64
2023/01/14 03:26:32;;;;;;;37.15;12.23;;;;;;;5.17;100.00;161917.78;5050908;28;20443;-66
2023/01/14 03:29:00;;;;;;;35.67;10.15;;;;;;;5.15;100.00;161912.38;5052902;28;20522;-66
2023/01/14 03:31:29;;;;;;;49.35;9.13;;;;;;;5.10;100.00;161900.25;5050925;28;20041;-68
2023/01/14 03:34:02;;;;;;;19.30;8.10;;;;;;;5.10;100.00;161900.25;5052537;28;20411;-66
2023/01/14 03:36:32;;;;;;;37.13;10.38;;;;;;;5.06;100.00;161890.84;5051093;28;20045;-66
2023/01/14 03:39:06;;;;;;;28.90;9.73;;;;;;;5.04;100.00;161885.47;5052494;28;20051;-66
2023/01/14 03:44:26;;;;;;;38.22;9.77;;;;;;;5.03;100.00;161881.44;5052168;28;20052;-66
2023/01/14 03:46:52;;;;;;;24.80;9.13;;;;;;;4.98;100.00;161869.31;5051122;28;20075;-66
2023/01/14 03:49:18;;;;;;;50.72;9.98;;;;;;;4.94;100.00;161858.59;5051952;28;20522;-66
2023/01/14 03:52:10;;;;;;;38.55;9.85;;;;;;;4.92;100.00;161854.53;5049341;28;20033;-66
2023/01/14 03:54:46;;;;;;;35.05;10.90;;;;;;;4.93;100.00;161855.91;5052305;28;20036;-66
2023/01/14 03:57:38;;;;;;;37.55;8.23;;;;;;;4.93;100.00;161857.22;5050252;28;20041;-66
2023/01/14 04:00:21;;;;;;;31.00;12.27;;;;;;;4.91;100.00;161850.50;5052193;28;20021;-66
2023/01/14 04:02:47;;;;;;;38.55;9.50;;;;;;;4.91;100.00;161850.50;5050441;28;20043;-66
2023/01/14 04:05:13;;;;;;;36.50;11.20;;;;;;;4.89;100.00;161846.47;5050147;28;20045;-66
2023/01/14 04:07:39;;;;;;;56.17;11.73;;;;;;;4.87;100.00;161839.78;5052171;28;20074;-66
2023/01/14 04:10:05;;;;;;;36.58;9.25;;;;;;;4.89;100.00;161846.47;5051909;28;20025;-66
2023/01/14 04:12:30;;;;;;;48.03;14.07;;;;;;;4.89;100.00;161845.09;5050311;28;20053;-66
2023/01/14 04:17:39;;;;;;;37.85;9.07;;;;;;;5.02;100.00;161878.75;5030383;28;20060;-66
2023/01/14 04:20:06;;;;;;;36.72;10.45;;;;;;;5.06;100.00;161890.84;5031800;28;20496;-64
2023/01/14 04:22:32;;;;;;;37.28;10.98;;;;;;;5.03;100.00;161882.75;5049816;28;20037;-64
2023/01/14 04:24:57;;;;;;;28.50;12.23;;;;;;;4.99;100.00;161872.03;5051335;28;20040;-64
2023/01/14 04:27:22;;;;;;;48.67;10.68;;;;;;;5.07;100.00;161893.53;5049940;28;20049;-64
2023/01/14 04:29:48;;;;;;;30.08;9.02;;;;;;;5.12;100.00;161904.28;5051578;28;20468;-64
2023/01/14 04:32:13;;;;;;;42.17;11.50;;;;;;;5.14;100.00;161909.69;5049479;28;20412;-64
2023/01/14 04:34:38;;;;;;;45.75;13.45;;;;;;;5.11;100.00;161902.97;5051756;28;20047;-64
2023/01/14 04:37:04;;;;;;;58.72;13.13;;;;;;;5.11;100.00;161902.97;5050091;28;20534;-63
2023/01/14 04:39:29;;;;;;;22.92;6.95;;;;;;;5.12;100.00;161904.28;5050662;28;20016;-64
2023/01/14 04:44:39;;;;;;;24.58;8.73;;;;;;;5.13;100.00;161908.34;5051530;28;20072;-66
2023/01/14 04:47:04;;;;;;;30.48;9.27;;;;;;;5.13;100.00;161906.97;5049630;28;20041;-65
2023/01/14 04:49:29;;;;;;;35.70;9.65;;;;;;;5.16;100.00;161915.06;5051117;28;20048;-66
2023/01/14 04:51:55;;;;;;;57.58;11.75;;;;;;;5.16;100.00;161916.41;5049783;28;20102;-66
2023/01/14 04:54:20;;;;;;;45.00;12.23;;;;;;;5.16;100.00;161916.41;5050713;28;20021;-66
2023/01/14 04:56:45;;;;;;;57.88;10.10;;;;;;;5.19;100.00;161923.13;5049529;28;20491;-66
2023/01/14 04:59:11;;;;;;;44.85;13.90;;;;;;;5.19;100.00;161923.13;5050703;28;20036;-66
2023/01/14 05:01:36;;;;;;;32.40;9.68;;;;;;;5.19;100.00;161924.50;5049621;28;20044;-65
2023/01/14 05:04:01;;;;;;;38.72;13.02;;;;;;;5.23;100.00;161933.91;5050655;28;20037;-65
2023/01/14 05:06:28;;;;;;;38.70;12.60;;;;;;;5.13;100.00;161906.97;5049467;28;20045;-66
2023/01/14 05:08:54;;;;;;;51.55;12.68;;;;;;;5.26;100.00;161941.94;5050969;28;20032;-66
2023/01/14 05:11:19;;;;;;;50.85;12.68;;;;;;;5.23;100.00;161933.91;5048882;28;20094;-66
2023/01/14 05:13:45;;;;;;;30.27;8.95;;;;;;;5.24;100.00;161936.59;5056504;28;20029;-65
2023/01/14 05:16:10;;;;;;;44.60;11.15;;;;;;;5.20;100.00;161925.81;5055415;28;20040;-64
2023/01/14 05:18:35;;;;;;;36.03;10.10;;;;;;;5.24;100.00;161936.59;5070291;28;20031;-64
2023/01/14 05:21:01;;;;;;;46.95;12.07;;;;;;;5.23;100.00;161933.91;5067809;28;20044;-64
2023/01/14 05:23:26;;;;;;;37.17;12.13;;;;;;;5.28;100.00;161947.34;5064654;28;20446;-64
2023/01/14 05:25:52;;;;;;;32.17;8.43;;;;;;;5.28;100.00;161947.34;5058979;28;20085;-64
2023/01/14 05:28:19;;;;;;;42.85;11.85;;;;;;;5.26;100.00;161941.94;5050531;28;20396;-64
2023/01/14 05:30:45;;;;;;;46.30;11.55;;;;;;;5.30;100.00;161951.34;5048939;28;20555;-64
2023/01/14 05:33:11;;;;;;;38.53;10.57;;;;;;;5.28;100.00;161947.34;5050011;28;20047;-66
2023/01/14 05:35:36;;;;;;;26.95;9.13;;;;;;;5.32;100.00;161958.13;5049223;28;20045;-66
2023/01/14 05:38:03;;;;;;;41.38;11.60;;;;;;;5.29;100.00;161950.03;5050598;28;20032;-66
2023/01/14 05:40:29;;;;;;;38.33;9.70;;;;;;;5.30;100.00;161952.72;5045494;28;20064;-66
2023/01/14 05:45:41;;;;;;;27.83;7.78;;;;;;;5.26;100.00;161941.94;5049686;28;20067;-66
2023/01/14 05:48:11;;;;;;;31.13;10.10;;;;;;;5.26;100.00;161941.94;5049155;28;20032;-66
2023/01/14 05:50:38;;;;;;;35.50;9.48;;;;;;;5.27;100.00;161944.66;5048752;28;20036;-65
2023/01/14 05:53:04;;;;;;;42.55;11.98;;;;;;;5.23;100.00;161933.91;5057134;28;20029;-65
2023/01/14 05:55:29;;;;;;;44.50;10.40;;;;;;;5.28;100.00;161947.34;5047065;28;20017;-64
2023/01/14 05:58:00;;;;;;;28.15;8.90;;;;;;;5.27;100.00;161944.66;5050035;28;20028;-64
2023/01/14 06:08:34;;;;;;;49.58;9.00;;;;;;;5.28;100.00;161946.00;5073892;28;20036;-64
2023/01/14 06:11:00;;;;;;;34.75;9.57;;;;;;;5.27;100.00;161944.66;5071549;28;20036;-64
2023/01/14 06:13:26;;;;;;;67.53;11.38;;;;;;;5.31;100.00;161954.06;5073728;28;20028;-64
2023/01/14 06:15:52;;;;;;;33.78;10.27;;;;;;;5.30;100.00;161951.34;5071390;28;20045;-64
2023/01/14 06:18:22;;;;;;;36.13;9.57;;;;;;;5.30;100.00;161952.72;5068689;28;20092;-64
2023/01/14 06:20:53;;;;;;;46.33;9.45;;;;;;;5.36;100.00;161967.53;5071121;28;20040;-64
2023/01/14 06:23:20;;;;;;;39.83;11.05;;;;;;;5.34;100.00;161963.47;5072995;28;20021;-64
2023/01/14 06:25:47;;;;;;;36.92;10.57;;;;;;;5.37;100.00;161971.56;5070957;28;20048;-64
2023/01/14 06:28:14;;;;;;;30.42;8.23;;;;;;;5.40;100.00;161979.59;5069026;28;20052;-64
2023/01/14 06:30:41;;;;;;;38.95;11.45;;;;;;;5.37;100.00;161971.56;5029873;28;20056;-64
2023/01/14 06:33:07;;;;;;;43.22;11.23;;;;;;;5.39;100.00;161976.97;5069591;28;20024;-64
2023/01/14 06:35:34;;;;;;;27.85;8.73;;;;;;;5.38;100.00;161974.25;5064735;28;20044;-64
2023/01/14 06:37:59;;;;;;;26.63;8.27;;;;;;;5.42;100.00;161982.31;5068586;28;20078;-64
2023/01/14 06:40:24;;;;;;;35.05;9.52;;;;;;;5.44;100.00;161987.69;5050646;28;20021;-64
2023/01/14 06:42:53;;;;;;;35.20;8.82;;;;;;;5.45;100.00;161990.41;5057326;28;20091;-64
2023/01/14 06:45:18;;;;;;;;;;;;;;;5.44;100.00;161987.69;5051653;28;20036;-64
2023/01/14 06:47:44;;;;;;;36.20;9.40;;;;;;;5.43;100.00;161985.00;5065791;28;19912;-64
2023/01/14 06:50:09;;;;;;;28.10;8.18;;;;;;;5.43;100.00;161985.00;5072845;28;20028;-64
2023/01/14 06:52:35;;;;;;;32.70;8.38;;;;;;;5.47;100.00;161995.78;5071596;28;20380;-64
2023/01/14 06:55:00;;;;;;;38.65;11.32;;;;;;;5.44;100.00;161987.69;5071894;28;20024;-64
2023/01/14 06:57:26;;;;;;;32.35;10.02;;;;;;;5.46;100.00;161993.09;5071023;28;20493;-64
2023/01/14 06:59:51;;;;;;;28.67;8.45;;;;;;;5.50;100.00;162003.81;5072881;28;20089;-64
2023/01/14 07:02:17;;;;;;;31.40;9.20;;;;;;;5.55;100.00;162017.28;5064926;28;20089;-64
2023/01/14 07:04:43;;;;;;;23.80;9.63;;;;;;;5.58;100.00;162025.38;5052442;28;20049;-64
2023/01/14 07:07:09;;;;;;;23.88;7.97;;;;;;;5.61;100.00;162032.09;5050926;28;20045;-66
2023/01/14 07:09:34;;;;;;;28.67;9.77;;;;;;;5.60;100.00;162029.38;5054888;28;20031;-66
2023/01/14 07:11:59;;;;;;;25.80;6.78;;;;;;;5.60;100.00;162030.75;5050944;28;20093;-66
2023/01/14 07:14:25;;;;;;;24.17;9.30;;;;;;;5.64;100.00;162040.19;5052256;28;20020;-64
2023/01/14 07:16:50;;;;;;;23.75;7.18;;;;;;;5.69;100.00;162055.00;5048767;28;20040;-64
2023/01/14 07:19:15;;;;;;;33.28;8.45;;;;;;;5.70;100.00;162057.63;5051842;28;20033;-64
2023/01/14 07:21:41;;;;;;;16.90;6.55;;;;;;;5.72;100.00;162063.03;5051017;28;20591;-63
2023/01/14 07:24:06;;;;;;;29.05;8.75;;;;;;;5.72;100.00;162063.03;5051243;28;20434;-63
2023/01/14 07:26:32;;;;;;;32.50;7.32;;;;;;;5.78;100.00;162077.84;5048849;28;20075;-60
2023/01/14 07:28:57;;;;;;;47.13;10.52;;;;;;;5.81;100.00;162085.88;5053073;28;20033;-60
2023/01/14 07:31:23;;;;;;;24.25;8.00;;;;;;;5.92;100.00;162114.16;5049581;28;20721;-60
2023/01/14 07:33:48;;;;;;;17.27;6.97;;;;;;;5.90;100.00;162107.41;5051395;28;20020;-60
2023/01/14 07:36:14;;;;;;;34.35;7.60;;;;;;;5.93;100.00;162116.84;5043867;28;20563;-60
2023/01/14 07:38:39;;;;;;;22.85;5.88;;;;;;;5.98;100.00;162128.97;5056962;28;20051;-60
2023/01/14 07:41:12;;;;;;;29.63;8.10;;;;;;;6.01;100.00;162138.44;5063178;28;20086;-60
2023/01/14 07:43:38;;;;;;;37.05;7.90;;;;;;;6.05;100.00;162146.53;5063392;28;20020;-60
2023/01/14 07:46:06;;;;;;;18.70;8.40;;;;;;;6.08;100.00;162154.56;5050184;28;20041;-60
2023/01/14 07:48:32;;;;;;;15.15;6.82;;;;;;;6.11;100.00;162162.66;5050743;28;20512;-60
2023/01/14 07:50:57;;;;;;;19.30;6.18;;;;;;;6.05;100.00;162146.53;5050294;28;20078;-60
2023/01/14 07:53:22;;;;;;;49.38;10.43;;;;;;;6.02;100.00;162141.13;5051337;28;20097;-60
2023/01/14 07:55:48;;;;;;;26.92;6.18;;;;;;;6.01;100.00;162138.44;5049396;28;20048;-60
2023/01/14 07:58:14;;;;;;;26.92;6.00;;;;;;;5.97;100.00;162127.63;5052619;28;20070;-60
2023/01/14 08:00:40;;;;;;;17.08;6.43;;;;;;;5.97;100.00;162126.25;5049772;28;20040;-60
2023/01/14 08:03:05;;;;;;;27.17;7.68;;;;;;;5.94;100.00;162119.53;5050702;28;20047;-60
2023/01/14 08:05:33;;;;;;;29.63;9.93;;;;;;;5.88;100.00;162104.72;5049743;28;20060;-60
2023/01/14 08:07:59;;;;;;;27.77;7.93;;;;;;;5.84;100.00;162093.97;5051283;28;20020;-60
2023/01/14 08:10:24;;;;;;;18.33;8.60;;;;;;;5.81;100.00;162084.56;5048885;28;20148;-60
2023/01/14 08:12:49;;;;;;;25.15;7.22;;;;;;;5.85;100.00;162095.31;5059870;28;20040;-60
2023/01/14 08:15:15;;;;;;;28.10;7.70;;;;;;;5.81;100.00;162084.56;5047299;28;20399;-60
2023/01/14 08:17:40;;;;;;;32.83;11.50;;;;;;;5.85;100.00;162095.31;5050497;28;20025;-60
2023/01/14 08:20:07;;;;;;;22.15;8.13;;;;;;;5.78;100.00;162076.47;5051531;28;20021;-60
2023/01/14 08:22:32;;;;;;;27.77;6.78;;;;;;;5.84;100.00;162092.66;5049088;28;20033;-64
2023/01/14 08:24:57;;;;;;;28.52;6.40;;;;;;;5.86;100.00;162099.38;5050200;28;20510;-63
2023/01/14 08:27:23;;;;;;;28.20;8.27;;;;;;;5.83;100.00;162089.97;5051262;28;20638;-63
2023/01/14 08:29:48;;;;;;;21.63;7.45;;;;;;;5.80;100.00;162081.88;5070670;28;20017;-63
2023/01/14 08:32:14;;;;;;;23.55;7.38;;;;;;;5.81;100.00;162084.56;5067769;28;20040;-64
2023/01/14 08:34:40;;;;;;;22.33;6.90;;;;;;;5.83;100.00;162091.28;5053298;28;20033;-63
2023/01/14 08:37:06;;;;;;;19.42;7.88;;;;;;;5.81;100.00;162085.88;5049179;28;20041;-63
2023/01/14 08:39:31;;;;;;;25.05;8.00;;;;;;;5.81;100.00;162084.56;5049728;28;20082;-63
2023/01/14 08:41:58;;;;;;;22.60;8.98;;;;;;;5.84;100.00;162092.66;5048859;28;20064;-63
2023/01/14 08:44:23;;;;;;;30.27;8.32;;;;;;;5.81;100.00;162084.56;5044563;28;20089;-63
2023/01/14 08:46:48;;;;;;;26.30;7.38;;;;;;;5.78;100.00;162076.47;5040038;28;20048;-63
2023/01/14 08:49:14;;;;;;;34.25;9.25;;;;;;;5.74;100.00;162065.72;5044218;28;20028;-63
2023/01/14 08:51:39;;;;;;;25.83;8.40;;;;;;;5.69;100.00;162055.00;5037064;28;20033;-63
2023/01/14 08:54:05;;;;;;;23.13;7.85;;;;;;;5.72;100.00;162063.03;5042733;28;20020;-63
2023/01/14 08:56:30;;;;;;;31.58;8.98;;;;;;;5.74;100.00;162067.06;5043158;28;20135;-63
2023/01/14 08:58:55;;;;;;;26.50;7.75;;;;;;;5.71;100.00;162060.34;5046476;28;20032;-63
2023/01/14 09:01:21;;;;;;;37.63;9.13;;;;;;;5.72;100.00;162063.03;5046417;28;20041;-63
2023/01/14 09:03:46;;;;;;;25.85;6.90;;;;;;;5.72;100.00;162061.72;5051387;28;20396;-60
2023/01/14 09:06:14;;;;;;;28.58;6.65;;;;;;;5.78;100.00;162076.47;5059557;28;20110;-65
2023/01/14 09:17:05;;;;;;;26.83;7.32;;;;;;;5.91;100.00;162111.50;5047894;28;20051;-63
2023/01/14 09:19:52;;;;;;;20.95;8.05;;;;;;;5.95;100.00;162122.25;5049912;28;20025;-63
2023/01/14 09:22:20;;;;;;;26.33;7.20;;;;;;;5.96;100.00;162124.94;5047611;28;20044;-63
2023/01/14 09:24:46;;;;;;;19.52;8.98;;;;;;;6.00;100.00;162135.72;5049098;28;20025;-64
2023/01/14 09:27:11;;;;;;;25.33;7.85;;;;;;;6.03;100.00;162142.50;5047976;28;20059;-63
2023/01/14 09:29:37;;;;;;;15.38;7.13;;;;;;;6.04;100.00;162145.16;5030181;28;20473;-63
2023/01/14 09:32:02;;;;;;;24.55;8.63;;;;;;;6.05;100.00;162147.84;5026735;28;20064;-63
2023/01/14 09:34:27;;;;;;;25.50;8.85;;;;;;;6.08;100.00;162155.94;5040068;28;20052;-63
2023/01/14 09:36:54;;;;;;;29.88;7.95;;;;;;;6.16;100.00;162176.13;5048295;28;20040;-63
2023/01/14 09:39:20;;;;;;;15.35;7.50;;;;;;;6.17;100.00;162178.81;5048060;28;20035;-64
2023/01/14 09:41:54;;;;;;;20.25;8.18;;;;;;;6.20;100.00;162186.91;5046314;28;20052;-63
2023/01/14 09:44:21;;;;;;;16.80;7.68;;;;;;;6.21;100.00;162188.22;5047142;28;20025;-64
2023/01/14 09:46:47;;;;;;;22.50;7.43;;;;;;;6.23;100.00;162194.94;5057533;28;20573;-64
2023/01/14 09:49:17;;;;;;;28.58;8.82;;;;;;;6.32;100.00;162219.19;5052956;28;20027;-63
2023/01/14 09:51:48;;;;;;;19.80;6.57;;;;;;;6.35;100.00;162227.28;5047878;28;20499;-63
2023/01/14 09:54:21;;;;;;;16.67;7.75;;;;;;;6.34;100.00;162224.59;5049048;28;20391;-63
2023/01/14 09:57:14;;;;;;;21.95;5.93;;;;;;;6.40;100.00;162238.03;5048468;28;20045;-64
2023/01/14 09:59:58;;;;;;;17.70;7.07;;;;;;;6.42;100.00;162243.44;5051649;28;20123;-63
2023/01/14 10:02:48;;;;;;;26.45;9.38;;;;;;;6.40;100.00;162238.03;5067440;28;20044;-63
2023/01/14 10:05:19;;;;;;;19.58;6.47;;;;;;;6.41;100.00;162240.75;5067303;28;20045;-62
2023/01/14 10:07:45;;;;;;;16.13;7.35;;;;;;;6.41;100.00;162242.06;5069020;28;20036;-63
2023/01/14 10:10:20;;;;;;;12.48;7.13;;;;;;;6.45;100.00;162251.47;5069874;28;20024;-64
2023/01/14 10:12:48;;;;;;;26.50;8.43;;;;;;;6.47;100.00;162256.88;5067876;28;20465;-64
2023/01/14 10:15:35;;;;;;;12.80;5.25;;;;;;;6.49;100.00;162262.28;5067474;28;20017;-62
2023/01/14 10:18:16;;;;;;;22.67;5.55;;;;;;;6.53;100.00;162273.03;5058220;28;20033;-63
2023/01/14 10:21:02;;;;;;;12.80;6.07;;;;;;;6.51;100.00;162267.69;5047516;28;20048;-63
2023/01/14 10:23:37;;;;;;;15.00;5.72;;;;;;;6.58;100.00;162286.53;5048571;28;20437;-64
2023/01/14 10:26:16;;;;;;;24.45;7.03;;;;;;;6.61;100.00;162294.56;5048401;28;20500;-63
2023/01/14 10:28:48;;;;;;;17.55;7.03;;;;;;;6.66;100.00;162308.03;5049243;28;20029;-64
2023/01/14 10:31:23;;;;;;;12.20;4.90;;;;;;;6.63;100.00;162298.59;5046909;28;20428;-64
2023/01/14 10:33:48;;;;;;;9.68;4.97;;;;;;;6.72;100.00;162321.53;5050041;28;20427;-64
2023/01/14 10:36:18;;;;;;;8.45;4.55;;;;;;;6.77;100.00;162334.97;5051232;28;20040;-64
2023/01/14 10:38:44;;;;;;;8.73;3.95;;;;;;;6.81;100.00;162345.78;5068674;28;20077;-65
2023/01/14 10:41:11;;;;;;;9.85;3.85;;;;;;;6.81;100.00;162345.78;5067767;28;20063;-64
2023/01/14 10:43:39;;;;;;;9.65;4.38;;;;;;;6.81;100.00;162347.09;5069455;28;20054;-64
2023/01/14 10:46:05;;;;;;;18.08;7.68;;;;;;;6.82;100.00;162348.41;5067006;28;20040;-64
2023/01/14 10:49:25;;;;;;;15.68;4.43;;;;;;;6.80;100.00;162343.06;5054156;28;20505;-64
2023/01/14 10:51:50;;;;;;;13.45;5.00;;;;;;;6.87;100.00;162361.91;5006981;28;20072;-64
2023/01/14 10:54:19;;;;;;;9.48;4.80;;;;;;;6.86;100.00;162357.84;5028120;28;20112;-64
2023/01/14 10:57:14;;;;;;;12.45;5.25;;;;;;;6.84;100.00;162353.81;5040903;28;20043;-64
2023/01/14 10:59:53;;;;;;;13.13;6.80;;;;;;;6.87;100.00;162361.91;5051885;28;20021;-64
2023/01/14 11:02:33;;;;;;;7.40;4.13;;;;;;;6.88;100.00;162364.63;5065974;28;20142;-64
2023/01/14 11:05:00;;;;;;;9.75;5.15;;;;;;;6.91;100.00;162372.66;5071760;28;20171;-64
2023/01/14 11:07:50;;;;;;;11.07;6.05;;;;;;;6.84;100.00;162353.81;5057202;28;20040;-64
2023/01/14 11:10:20;;;;;;;12.10;3.53;;;;;;;6.95;100.00;162382.09;5062985;28;20591;-64
2023/01/14 11:12:46;;;;;;;25.10;6.18;;;;;;;6.99;100.00;162394.22;5052715;28;20052;-64
2023/01/14 11:15:38;;;;;;;6.68;3.70;;;;;;;7.04;100.00;162404.97;5051025;28;20396;-58
2023/01/14 11:18:18;;;;;;;20.67;5.15;;;;;;;7.06;100.00;162410.38;5052671;28;20345;-65
2023/01/14 11:21:05;;;;;;;5.63;3.83;;;;;;;7.11;100.00;162423.88;5050554;28;20044;-64
2023/01/14 11:23:33;;;;;;;13.57;5.30;;;;;;;7.14;100.00;162431.94;5053469;28;20047;-64
2023/01/14 11:26:10;;;;;;;11.52;4.10;;;;;;;7.13;100.00;162429.22;5050875;28;20045;-64
2023/01/14 11:28:41;;;;;;;16.55;5.82;;;;;;;7.08;100.00;162415.78;5050580;28;20537;-65
2023/01/14 11:31:07;;;;;;;10.35;5.78;;;;;;;7.08;100.00;162415.78;5051049;28;20037;-64
2023/01/14 11:33:33;;;;;;;9.32;5.65;;;;;;;7.11;100.00;162425.19;5052043;28;20048;-64
2023/01/14 11:36:01;;;;;;;13.68;5.55;;;;;;;7.10;100.00;162421.19;5049514;28;20037;-64
2023/01/14 11:38:27;;;;;;;10.52;5.63;;;;;;;7.13;100.00;162429.22;5052021;28;20049;-65
2023/01/14 11:43:59;;;;;;;14.13;5.38;;;;;;;7.10;100.00;162421.19;5065843;28;20074;-64
2023/01/14 11:46:25;;;;;;;9.63;4.82;;;;;;;7.23;100.00;162456.19;5070293;28;20411;-64
2023/01/14 11:49:16;;;;;;;10.05;4.97;;;;;;;7.26;100.00;162462.91;5071504;28;20040;-64
2023/01/14 11:51:55;;;;;;;10.75;6.10;;;;;;;7.32;100.00;162477.75;5069366;28;20053;-64
2023/01/14 11:54:21;;;;;;;7.82;4.55;;;;;;;7.37;100.00;162491.19;5071653;28;20019;-64
2023/01/14 11:56:47;;;;;;;12.13;5.78;;;;;;;7.36;100.00;162489.88;5068393;28;20391;-64
2023/01/14 11:59:35;;;;;;;6.68;4.20;;;;;;;7.38;100.00;162493.91;5069869;28;20119;-64
2023/01/14 12:02:01;;;;;;;22.60;6.05;;;;;;;7.39;100.00;162497.91;5069517;28;20240;-64